Time;durP1;ratioP1;P1;durP2;ratioP2;P2;SDS_P1;SDS_P2;PMS_P1;PMS_P2;Temp;Humidity;BMP_temperature;BMP_pressure;BME280_temperature;BME280_humidity;BME280_pressure;Samples;Min_cycle;Max_cycle;Signal;HPM_P1;HPM_P2
2021/10/11 00:01:51;;;;;;;21.17;15.87;;;5.90;99.90;;;;;;5013003;28;20171;-77
2021/10/11 00:04:17;;;;;;;23.13;15.63;;;5.90;99.90;;;;;;5009808;28;20748;-77
2021/10/11 00:06:42;;;;;;;21.97;15.77;;;5.90;99.90;;;;;;5013064;28;20171;-77
2021/10/11 00:09:08;;;;;;;23.03;15.17;;;5.80;99.90;;;;;;5014051;28;20689;-77
2021/10/11 00:11:34;;;;;;;21.60;15.97;;;5.70;99.90;;;;;;5016826;28;20167;-77
2021/10/11 00:13:59;;;;;;;21.10;15.73;;;5.80;99.90;;;;;;5008125;28;20669;-76
2021/10/11 00:16:25;;;;;;;22.63;15.23;;;5.70;99.90;;;;;;5016869;28;20175;-77
2021/10/11 00:18:52;;;;;;;24.07;16.17;;;5.70;99.90;;;;;;5012092;28;20178;-77
2021/10/11 00:21:18;;;;;;;21.87;15.27;;;5.70;99.90;;;;;;5016522;28;20168;-76
2021/10/11 00:23:44;;;;;;;20.10;14.90;;;5.70;99.90;;;;;;5014923;28;20214;-76
2021/10/11 00:26:10;;;;;;;22.53;15.83;;;5.70;99.90;;;;;;5016475;28;20258;-77
2021/10/11 00:28:36;;;;;;;25.50;16.07;;;5.70;99.90;;;;;;5016675;28;20266;-76
2021/10/11 00:31:02;;;;;;;20.53;15.00;;;5.60;99.90;;;;;;5016170;28;20171;-76
2021/10/11 00:33:27;;;;;;;21.07;16.20;;;5.70;99.90;;;;;;5016159;28;20191;-77
2021/10/11 00:35:53;;;;;;;20.87;15.43;;;5.60;99.90;;;;;;5017454;28;20637;-77
2021/10/11 00:38:18;;;;;;;20.40;14.83;;;5.60;99.90;;;;;;5030195;28;20178;-76
2021/10/11 00:40:44;;;;;;;22.27;15.80;;;5.60;99.90;;;;;;5016171;28;20175;-76
2021/10/11 00:43:10;;;;;;;19.83;14.90;;;5.60;99.90;;;;;;5015972;28;20210;-77
2021/10/11 00:45:35;;;;;;;19.27;15.10;;;5.60;99.90;;;;;;5024555;28;20603;-76
2021/10/11 00:48:01;;;;;;;18.03;15.10;;;5.60;99.90;;;;;;5019886;28;20596;-77
2021/10/11 00:50:27;;;;;;;22.80;15.67;;;5.50;99.90;;;;;;5014943;28;20261;-76
2021/10/11 00:52:52;;;;;;;20.90;15.13;;;5.50;99.90;;;;;;5015971;28;20206;-76
2021/10/11 00:55:18;;;;;;;19.80;15.20;;;5.40;99.90;;;;;;5015843;28;20177;-77
2021/10/11 00:57:44;;;;;;;22.13;15.47;;;5.30;99.90;;;;;;5015824;28;20169;-76
2021/10/11 01:00:10;;;;;;;22.70;15.80;;;5.30;99.90;;;;;;5015721;28;20704;-76
2021/10/11 01:02:36;;;;;;;21.80;15.17;;;5.20;99.90;;;;;;5015735;28;20179;-76
2021/10/11 01:05:02;;;;;;;21.43;15.27;;;5.20;99.90;;;;;;5014931;28;20190;-76
2021/10/11 01:07:28;;;;;;;19.77;14.40;;;5.10;99.90;;;;;;5015933;28;20194;-76
2021/10/11 01:09:53;;;;;;;20.87;14.80;;;5.00;99.90;;;;;;5015574;28;20194;-77
2021/10/11 01:12:19;;;;;;;19.97;14.47;;;5.10;99.90;;;;;;5014762;28;20264;-77
2021/10/11 01:14:44;;;;;;;18.87;14.87;;;5.00;99.90;;;;;;5005588;28;20252;-77
2021/10/11 01:17:10;;;;;;;20.73;15.07;;;5.00;99.90;;;;;;5014209;28;20217;-77
2021/10/11 01:19:38;;;;;;;23.30;15.40;;;5.10;99.90;;;;;;5015316;28;20196;-77
2021/10/11 01:22:04;;;;;;;18.97;14.33;;;5.10;99.90;;;;;;5015486;28;20177;-76
2021/10/11 01:24:29;;;;;;;20.90;14.63;;;5.10;99.90;;;;;;5015128;28;20205;-76
2021/10/11 01:26:55;;;;;;;18.47;13.67;;;5.10;99.90;;;;;;5015269;28;20592;-76
2021/10/11 01:29:21;;;;;;;17.60;14.50;;;5.10;99.90;;;;;;5015056;28;20190;-77
2021/10/11 01:31:47;;;;;;;19.93;14.67;;;5.00;99.90;;;;;;5015162;28;20255;-76
2021/10/11 01:34:13;;;;;;;19.00;14.70;;;5.00;99.90;;;;;;5015180;28;20194;-76
2021/10/11 01:36:39;;;;;;;20.27;14.00;;;5.00;99.90;;;;;;5014511;28;20167;-76
2021/10/11 01:39:07;;;;;;;20.07;14.93;;;5.00;99.90;;;;;;5015085;28;20191;-77
2021/10/11 01:41:32;;;;;;;21.03;15.43;;;5.00;99.90;;;;;;5015055;28;20257;-76
2021/10/11 01:43:58;;;;;;;19.23;14.07;;;5.00;99.90;;;;;;5014906;28;20225;-76
2021/10/11 01:46:24;;;;;;;18.70;13.97;;;4.90;99.90;;;;;;5015101;28;20180;-77
2021/10/11 01:48:49;;;;;;;20.90;13.73;;;4.80;99.90;;;;;;5014886;28;20539;-76
2021/10/11 01:51:15;;;;;;;18.23;13.90;;;4.70;99.90;;;;;;5014830;28;20183;-76
2021/10/11 01:53:41;;;;;;;20.40;14.63;;;4.70;99.90;;;;;;5014735;28;20632;-77
2021/10/11 01:56:07;;;;;;;22.43;14.67;;;4.70;99.90;;;;;;5012268;28;20182;-76
2021/10/11 01:58:33;;;;;;;19.03;14.13;;;4.50;99.90;;;;;;5013582;28;20174;-76
2021/10/11 02:00:59;;;;;;;19.57;14.93;;;4.60;99.90;;;;;;5010525;28;20196;-76
2021/10/11 02:03:25;;;;;;;18.60;14.40;;;4.70;99.90;;;;;;5008156;28;20221;-77
2021/10/11 02:05:51;;;;;;;18.03;14.73;;;4.80;99.90;;;;;;5012764;28;20277;-77
2021/10/11 02:08:16;;;;;;;20.90;14.53;;;4.70;99.90;;;;;;5012738;28;20273;-77
2021/10/11 02:10:42;;;;;;;20.80;14.63;;;4.60;99.90;;;;;;5012273;28;20202;-77
2021/10/11 02:13:07;;;;;;;18.37;14.40;;;4.50;99.90;;;;;;5007550;28;20234;-76
2021/10/11 02:15:33;;;;;;;19.70;14.27;;;4.60;99.90;;;;;;5011840;28;20182;-77
2021/10/11 02:17:59;;;;;;;19.23;15.30;;;4.50;99.90;;;;;;5013706;28;20544;-76
2021/10/11 02:20:26;;;;;;;20.80;14.77;;;4.50;99.90;;;;;;5013296;28;20258;-76
2021/10/11 02:25:18;;;;;;;21.07;14.77;;;4.20;99.90;;;;;;5059424;22;20231;-80
2021/10/11 02:27:43;;;;;;;18.83;13.80;;;4.30;99.90;;;;;;5038346;28;20178;-80
2021/10/11 02:30:11;;;;;;;19.13;13.83;;;4.30;99.90;;;;;;5038253;28;20201;-80
2021/10/11 02:32:38;;;;;;;19.50;14.50;;;4.30;99.90;;;;;;5037520;28;20553;-80
2021/10/11 02:35:07;;;;;;;22.80;15.33;;;4.30;99.90;;;;;;5040920;28;20252;-80
2021/10/11 02:37:33;;;;;;;20.07;14.57;;;4.30;99.90;;;;;;5037721;28;20185;-79
2021/10/11 02:39:59;;;;;;;23.10;15.60;;;4.10;99.90;;;;;;5037576;28;20230;-80
2021/10/11 02:42:24;;;;;;;20.67;14.33;;;3.90;99.90;;;;;;5038969;28;20556;-79
2021/10/11 02:44:50;;;;;;;18.43;14.90;;;3.80;99.90;;;;;;5040884;28;20209;-80
2021/10/11 02:47:16;;;;;;;24.03;15.90;;;3.90;99.90;;;;;;5039849;28;20589;-80
2021/10/11 02:49:42;;;;;;;20.57;14.93;;;3.90;99.90;;;;;;5039451;28;20292;-80
2021/10/11 02:52:07;;;;;;;19.40;14.57;;;4.00;99.90;;;;;;5041952;28;20185;-80
2021/10/11 02:54:33;;;;;;;21.17;14.47;;;3.90;99.90;;;;;;5038319;28;20200;-80
2021/10/11 02:56:59;;;;;;;22.33;15.10;;;3.80;99.90;;;;;;5036127;28;20179;-80
2021/10/11 02:59:25;;;;;;;18.53;13.97;;;3.90;99.90;;;;;;5037617;28;20179;-80
2021/10/11 03:01:50;;;;;;;21.50;15.57;;;3.90;99.90;;;;;;5037741;28;20190;-79
2021/10/11 03:04:16;;;;;;;20.37;14.53;;;3.80;99.90;;;;;;5038410;28;20206;-79
2021/10/11 03:06:42;;;;;;;22.73;14.80;;;3.90;99.90;;;;;;5037380;28;20667;-80
2021/10/11 03:09:07;;;;;;;18.80;14.03;;;3.90;99.90;;;;;;5037813;28;20237;-79
2021/10/11 03:11:33;;;;;;;20.17;13.93;;;4.00;99.90;;;;;;5037535;28;20177;-80
2021/10/11 03:13:59;;;;;;;18.40;13.63;;;4.00;99.90;;;;;;5038363;28;20185;-80
2021/10/11 03:16:25;;;;;;;20.03;14.30;;;4.00;99.90;;;;;;5036771;28;20186;-79
2021/10/11 03:18:50;;;;;;;21.53;15.10;;;4.00;99.90;;;;;;5036849;28;20181;-80
2021/10/11 03:21:18;;;;;;;21.03;14.50;;;4.00;99.90;;;;;;5038192;28;20240;-80
2021/10/11 03:23:46;;;;;;;23.37;15.47;;;3.80;99.90;;;;;;5036038;28;20270;-80
2021/10/11 03:26:12;;;;;;;20.57;15.07;;;3.70;99.90;;;;;;5037716;28;20251;-80
2021/10/11 03:28:37;;;;;;;20.50;14.70;;;3.80;99.90;;;;;;5035957;28;20205;-79
2021/10/11 03:31:04;;;;;;;21.67;15.00;;;3.90;99.90;;;;;;5037250;28;20210;-79
2021/10/11 03:33:30;;;;;;;20.67;14.90;;;4.00;99.90;;;;;;5037648;28;20286;-80
2021/10/11 03:35:55;;;;;;;23.53;15.83;;;4.00;99.90;;;;;;5037589;28;20204;-79
2021/10/11 03:38:21;;;;;;;23.03;15.90;;;4.00;99.90;;;;;;5036153;28;20184;-80
2021/10/11 03:40:47;;;;;;;27.00;16.90;;;4.20;99.90;;;;;;5036074;28;20208;-80
2021/10/11 03:43:12;;;;;;;33.53;17.60;;;4.20;99.90;;;;;;5038237;28;20521;-79
2021/10/11 03:45:38;;;;;;;30.57;17.77;;;4.30;99.90;;;;;;5040781;28;20187;-79
2021/10/11 03:48:04;;;;;;;32.10;18.57;;;4.40;99.90;;;;;;5041187;28;20181;-80
2021/10/11 03:50:30;;;;;;;29.63;17.23;;;4.50;99.90;;;;;;5036394;28;20247;-79
2021/10/11 03:52:56;;;;;;;29.33;17.47;;;4.50;99.90;;;;;;5041431;28;20209;-80
2021/10/11 03:55:21;;;;;;;32.07;18.23;;;4.50;99.90;;;;;;5040673;28;20169;-80
2021/10/11 03:57:47;;;;;;;29.13;17.97;;;4.50;99.90;;;;;;5040371;28;20652;-79
2021/10/11 04:00:13;;;;;;;32.37;18.10;;;4.60;99.90;;;;;;5040607;28;20173;-80
2021/10/11 04:02:39;;;;;;;32.03;19.93;;;4.60;99.90;;;;;;5038994;28;20248;-80
2021/10/11 04:05:06;;;;;;;28.23;18.50;;;4.70;99.90;;;;;;5040239;28;20228;-80
2021/10/11 04:07:32;;;;;;;27.57;18.50;;;4.70;99.90;;;;;;5030697;28;20181;-79
2021/10/11 04:10:01;;;;;;;27.00;17.90;;;4.70;99.90;;;;;;5036106;28;20228;-79
2021/10/11 04:12:37;;;;;;;30.37;18.60;;;4.60;99.90;;;;;;5035931;28;20261;-80
2021/10/11 04:15:05;;;;;;;30.47;19.73;;;4.70;99.90;;;;;;5039733;28;20704;-79
2021/10/11 04:17:31;;;;;;;34.60;18.70;;;4.70;99.90;;;;;;5038368;28;20189;-79
2021/10/11 04:19:57;;;;;;;30.73;18.40;;;4.80;99.90;;;;;;5037736;28;20657;-80
2021/10/11 04:22:23;;;;;;;28.07;19.10;;;4.80;99.90;;;;;;5040911;28;20264;-80
2021/10/11 04:24:49;;;;;;;30.53;18.50;;;4.80;99.90;;;;;;5040676;28;20246;-80
2021/10/11 04:27:15;;;;;;;31.60;18.97;;;4.80;99.90;;;;;;5054176;28;20180;-80
2021/10/11 04:29:40;;;;;;;32.77;19.47;;;4.80;99.90;;;;;;5040909;28;20970;-79
2021/10/11 04:32:06;;;;;;;29.67;19.50;;;4.70;99.90;;;;;;5039515;28;20185;-80
2021/10/11 04:34:32;;;;;;;33.60;20.30;;;4.60;99.90;;;;;;5038989;28;20202;-80
2021/10/11 04:36:58;;;;;;;38.60;21.73;;;4.50;99.90;;;;;;5038857;28;20180;-80
2021/10/11 04:39:23;;;;;;;34.87;20.77;;;4.50;99.90;;;;;;5038805;28;20622;-79
2021/10/11 04:41:49;;;;;;;36.60;20.97;;;4.50;99.90;;;;;;5038980;28;20870;-79
2021/10/11 04:44:15;;;;;;;32.90;20.63;;;4.50;99.90;;;;;;5039186;28;20611;-80
2021/10/11 04:46:40;;;;;;;37.83;19.83;;;4.70;99.90;;;;;;5045378;28;20184;-80
2021/10/11 04:49:06;;;;;;;32.00;20.93;;;4.70;99.90;;;;;;5038834;28;20202;-79
2021/10/11 04:51:33;;;;;;;40.80;21.90;;;4.80;99.90;;;;;;5037430;28;20205;-80
2021/10/11 04:53:58;;;;;;;40.20;22.13;;;4.80;99.90;;;;;;5038225;28;20217;-80
2021/10/11 04:56:24;;;;;;;40.83;22.67;;;4.70;99.90;;;;;;5036942;28;20188;-79
2021/10/11 04:58:50;;;;;;;38.30;22.77;;;4.70;99.90;;;;;;5036731;28;20194;-81
2021/10/11 05:01:20;;;;;;;38.17;21.60;;;4.70;99.90;;;;;;5041621;28;20178;-80
2021/10/11 05:03:45;;;;;;;36.10;21.33;;;4.90;99.90;;;;;;5039539;28;20254;-79
2021/10/11 05:06:11;;;;;;;41.43;25.07;;;4.90;99.90;;;;;;5037532;28;20406;-80
2021/10/11 05:08:37;;;;;;;35.73;22.20;;;4.90;99.90;;;;;;5035051;28;20178;-80
2021/10/11 05:11:02;;;;;;;37.83;21.77;;;5.00;99.90;;;;;;5037534;28;20701;-80
2021/10/11 05:13:28;;;;;;;35.13;21.87;;;5.00;99.90;;;;;;5038123;28;20265;-81
2021/10/11 05:15:54;;;;;;;38.30;21.30;;;5.10;99.90;;;;;;5038713;28;20186;-80
2021/10/11 05:18:19;;;;;;;36.13;21.03;;;5.10;99.90;;;;;;5036599;28;20238;-80
2021/10/11 05:20:50;;;;;;;32.07;20.10;;;5.10;99.90;;;;;;5038908;28;20197;-80
2021/10/11 05:23:17;;;;;;;35.63;21.17;;;5.10;99.90;;;;;;5034914;28;20221;-81
2021/10/11 05:25:44;;;;;;;38.90;22.33;;;5.20;99.90;;;;;;5037208;28;20194;-80
2021/10/11 05:28:10;;;;;;;37.60;21.20;;;5.10;99.90;;;;;;5038525;28;20250;-80
2021/10/11 05:30:39;;;;;;;40.37;20.47;;;5.20;99.90;;;;;;5038507;28;20214;-80
2021/10/11 05:33:05;;;;;;;36.47;20.80;;;5.10;99.90;;;;;;5038254;28;20385;-81
2021/10/11 05:35:30;;;;;;;36.37;19.03;;;5.10;99.90;;;;;;5040367;28;20657;-80
2021/10/11 05:37:56;;;;;;;34.40;19.83;;;5.10;99.90;;;;;;5039994;28;20541;-79
2021/10/11 05:40:22;;;;;;;32.43;19.30;;;5.10;99.90;;;;;;5038965;28;20550;-80
2021/10/11 05:42:47;;;;;;;33.90;19.00;;;5.00;99.90;;;;;;5038894;28;20628;-80
2021/10/11 05:45:13;;;;;;;36.70;19.97;;;5.10;99.90;;;;;;5039082;28;20696;-80
2021/10/11 05:47:39;;;;;;;33.57;19.10;;;5.10;99.90;;;;;;5037406;28;20209;-79
2021/10/11 05:50:07;;;;;;;34.57;20.47;;;5.00;99.90;;;;;;5034483;28;20205;-80
2021/10/11 05:52:33;;;;;;;32.87;20.07;;;5.00;99.90;;;;;;5035570;28;20649;-81
2021/10/11 05:54:59;;;;;;;38.03;19.93;;;4.90;99.90;;;;;;5038720;28;20730;-81
2021/10/11 05:57:24;;;;;;;38.00;20.70;;;4.80;99.90;;;;;;5037450;28;20189;-82
2021/10/11 05:59:50;;;;;;;34.73;19.43;;;4.90;99.90;;;;;;5035847;28;20276;-81
2021/10/11 06:02:15;;;;;;;32.43;18.57;;;4.70;99.90;;;;;;5034796;28;20195;-80
2021/10/11 06:04:41;;;;;;;33.80;18.20;;;4.70;99.90;;;;;;5033379;28;20209;-80
2021/10/11 06:07:07;;;;;;;32.77;18.57;;;4.40;99.90;;;;;;5037958;28;20172;-80
2021/10/11 06:09:32;;;;;;;31.73;18.87;;;4.30;99.90;;;;;;5037741;28;20201;-80
2021/10/11 06:11:58;;;;;;;36.27;19.90;;;4.30;99.90;;;;;;5035866;28;20234;-79
2021/10/11 06:14:24;;;;;;;36.70;20.30;;;4.30;99.90;;;;;;5034251;28;20220;-80
2021/10/11 06:16:49;;;;;;;30.30;18.80;;;4.20;99.90;;;;;;5037228;28;20181;-79
2021/10/11 06:19:15;;;;;;;33.40;18.80;;;4.30;99.90;;;;;;5038085;28;20187;-79
2021/10/11 06:21:41;;;;;;;29.67;19.27;;;4.30;99.90;;;;;;5032874;28;20658;-79
2021/10/11 06:24:09;;;;;;;32.77;19.57;;;4.40;99.90;;;;;;5037537;28;20220;-79
2021/10/11 06:26:35;;;;;;;37.77;19.33;;;4.50;99.90;;;;;;5033137;28;20252;-79
2021/10/11 06:29:00;;;;;;;29.03;18.00;;;4.60;99.90;;;;;;5035046;28;20216;-79
2021/10/11 06:31:26;;;;;;;32.10;19.03;;;4.70;99.90;;;;;;5031861;28;20242;-79
2021/10/11 06:33:52;;;;;;;38.77;18.90;;;4.80;99.90;;;;;;5033256;28;20678;-79
2021/10/11 06:36:17;;;;;;;31.13;19.40;;;4.80;99.90;;;;;;5035086;28;20204;-79
2021/10/11 06:38:43;;;;;;;30.60;18.37;;;4.80;99.90;;;;;;5036550;28;20209;-79
2021/10/11 06:41:08;;;;;;;33.03;19.93;;;4.80;99.90;;;;;;5035231;28;20265;-79
2021/10/11 06:43:34;;;;;;;30.13;19.17;;;4.70;99.90;;;;;;5036449;28;20201;-79
2021/10/11 06:46:00;;;;;;;31.13;19.30;;;4.80;99.90;;;;;;5035513;28;20262;-79
2021/10/11 06:48:26;;;;;;;32.87;19.10;;;4.90;99.90;;;;;;5034834;28;20199;-79
2021/10/11 06:50:51;;;;;;;30.07;19.40;;;4.70;99.90;;;;;;5032760;28;20202;-79
2021/10/11 06:53:17;;;;;;;31.07;19.67;;;4.90;99.90;;;;;;5036864;28;20611;-79
2021/10/11 06:55:42;;;;;;;35.73;20.70;;;4.90;99.90;;;;;;5037037;28;20201;-79
2021/10/11 06:58:08;;;;;;;37.27;22.30;;;5.00;99.90;;;;;;5039922;28;20227;-79
2021/10/11 07:00:34;;;;;;;36.87;22.40;;;5.10;99.90;;;;;;5036272;28;20204;-80
2021/10/11 07:03:00;;;;;;;38.07;22.30;;;5.10;99.90;;;;;;5036171;28;20266;-79
2021/10/11 07:05:27;;;;;;;35.03;21.63;;;5.10;99.90;;;;;;5031097;28;20673;-81
2021/10/11 07:07:53;;;;;;;36.70;22.00;;;5.20;99.90;;;;;;5035886;28;20236;-80
2021/10/11 07:10:19;;;;;;;38.07;22.10;;;5.30;99.90;;;;;;5028600;28;20197;-80
2021/10/11 07:12:44;;;;;;;39.17;22.27;;;5.40;99.90;;;;;;5031498;28;20196;-79
2021/10/11 07:15:10;;;;;;;45.87;24.20;;;5.40;99.90;;;;;;5036950;28;20688;-76
2021/10/11 07:17:36;;;;;;;47.40;24.03;;;5.50;99.90;;;;;;5037854;28;20176;-80
2021/10/11 07:20:04;;;;;;;46.80;24.93;;;5.50;99.90;;;;;;5035806;28;20186;-78
2021/10/11 07:22:29;;;;;;;44.00;23.80;;;5.50;99.90;;;;;;5048328;28;20177;-80
2021/10/11 07:24:55;;;;;;;56.33;26.07;;;5.50;99.90;;;;;;5037964;28;20218;-78
2021/10/11 07:27:21;;;;;;;51.53;25.63;;;5.60;99.90;;;;;;5035289;28;20205;-78
2021/10/11 07:29:46;;;;;;;49.30;25.00;;;5.70;99.90;;;;;;5036780;28;20198;-79
2021/10/11 07:32:12;;;;;;;54.23;25.33;;;5.70;99.90;;;;;;5037387;28;20197;-80
2021/10/11 07:34:38;;;;;;;51.27;25.07;;;5.80;99.90;;;;;;5038257;28;20190;-79
2021/10/11 07:37:05;;;;;;;50.47;25.03;;;5.80;99.90;;;;;;5038424;28;20177;-83
2021/10/11 07:39:31;;;;;;;56.53;26.43;;;5.80;99.90;;;;;;5038502;28;20326;-83
2021/10/11 07:41:58;;;;;;;48.47;25.60;;;5.90;99.90;;;;;;5038489;28;20231;-83
2021/10/11 07:44:24;;;;;;;52.53;25.50;;;5.90;99.90;;;;;;5037786;28;20201;-83
2021/10/11 07:46:52;;;;;;;54.33;25.73;;;5.90;99.90;;;;;;5038170;28;20540;-83
2021/10/11 07:49:18;;;;;;;49.73;25.97;;;6.00;99.90;;;;;;5038237;28;20257;-84
2021/10/11 07:51:44;;;;;;;51.93;25.50;;;6.10;99.90;;;;;;5037447;28;20197;-83
2021/10/11 07:54:09;;;;;;;48.30;24.77;;;6.20;99.90;;;;;;5037241;28;20281;-83
2021/10/11 07:56:37;;;;;;;51.37;27.47;;;6.20;99.90;;;;;;5032178;28;20179;-83
2021/10/11 07:59:03;;;;;;;51.73;27.50;;;6.20;99.90;;;;;;5029617;28;20170;-83
2021/10/11 08:01:29;;;;;;;51.37;26.30;;;6.30;99.90;;;;;;5038279;28;20170;-83
2021/10/11 08:03:55;;;;;;;52.43;25.97;;;6.30;99.90;;;;;;5038840;28;20187;-83
2021/10/11 08:06:21;;;;;;;51.13;25.43;;;6.30;99.90;;;;;;5037827;28;20209;-83
2021/10/11 08:08:46;;;;;;;49.17;25.10;;;6.40;99.90;;;;;;5037781;28;20320;-82
2021/10/11 08:11:12;;;;;;;50.60;24.60;;;6.40;99.90;;;;;;5038974;28;20202;-83
2021/10/11 08:13:38;;;;;;;51.10;24.90;;;6.40;99.90;;;;;;5037009;28;20186;-83
2021/10/11 08:16:04;;;;;;;52.83;25.10;;;6.40;99.90;;;;;;5040778;28;20182;-83
2021/10/11 08:18:30;;;;;;;46.77;24.50;;;6.50;99.90;;;;;;5038222;28;20171;-83
2021/10/11 08:20:56;;;;;;;46.90;24.03;;;6.60;99.90;;;;;;5038959;28;20181;-83
2021/10/11 08:23:21;;;;;;;48.83;25.87;;;6.60;99.90;;;;;;5038900;28;20241;-83
2021/10/11 08:25:47;;;;;;;54.07;26.63;;;6.60;99.90;;;;;;5058468;23;20311;-78
2021/10/11 08:28:12;;;;;;;49.10;23.80;;;6.60;99.90;;;;;;5018699;28;20183;-81
2021/10/11 08:30:39;;;;;;;42.87;24.77;;;6.70;99.90;;;;;;5047099;28;20739;-82
2021/10/11 08:33:05;;;;;;;47.83;25.80;;;6.80;99.90;;;;;;5047701;28;20178;-80
2021/10/11 08:35:30;;;;;;;51.47;24.70;;;6.80;99.90;;;;;;5029090;28;20205;-82
2021/10/11 08:37:56;;;;;;;43.77;23.57;;;6.90;99.90;;;;;;5020282;28;20175;-82
2021/10/11 08:40:22;;;;;;;47.73;25.23;;;6.90;99.90;;;;;;5016887;28;20642;-82
2021/10/11 08:42:49;;;;;;;49.80;24.70;;;7.00;99.90;;;;;;5018502;28;20190;-82
2021/10/11 08:45:15;;;;;;;48.93;25.37;;;7.00;99.90;;;;;;5017014;28;20260;-80
2021/10/11 08:47:41;;;;;;;39.30;22.93;;;7.10;99.90;;;;;;5016679;28;20262;-81
2021/10/11 08:50:11;;;;;;;45.10;23.80;;;7.10;99.90;;;;;;5015928;28;20195;-82
2021/10/11 08:52:37;;;;;;;42.50;23.97;;;7.10;99.90;;;;;;5019101;28;20230;-82
2021/10/11 08:55:03;;;;;;;42.53;24.10;;;7.00;99.90;;;;;;5020167;28;20277;-80
2021/10/11 08:57:34;;;;;;;43.67;22.77;;;7.10;99.90;;;;;;5021497;28;20175;-82
2021/10/11 09:00:12;;;;;;;41.70;23.13;;;7.10;99.90;;;;;;5021393;28;20202;-82
2021/10/11 09:02:51;;;;;;;37.53;22.60;;;7.10;99.90;;;;;;5022090;28;20186;-81
2021/10/11 09:05:25;;;;;;;39.93;22.10;;;7.00;99.90;;;;;;5019569;28;20211;-82
2021/10/11 09:07:58;;;;;;;36.77;20.90;;;7.00;99.90;;;;;;5036562;28;20183;-81
2021/10/11 09:10:24;;;;;;;38.87;21.07;;;7.10;99.90;;;;;;5023225;28;20202;-81
2021/10/11 09:12:49;;;;;;;40.50;21.83;;;7.00;99.90;;;;;;5020059;28;20183;-83
2021/10/11 09:15:15;;;;;;;49.30;23.20;;;7.00;99.90;;;;;;5024475;28;20569;-82
2021/10/11 09:17:50;;;;;;;45.83;22.97;;;7.00;99.90;;;;;;5021255;28;20175;-81
2021/10/11 09:20:18;;;;;;;39.80;22.73;;;7.10;99.90;;;;;;5017676;28;20183;-82
2021/10/11 09:22:45;;;;;;;36.63;21.93;;;7.20;99.90;;;;;;5020532;28;20214;-82
2021/10/11 09:25:13;;;;;;;40.27;21.83;;;7.20;99.90;;;;;;5020474;28;20249;-82
2021/10/11 09:27:44;;;;;;;42.53;22.03;;;7.30;99.90;;;;;;5021814;28;20179;-82
2021/10/11 09:30:12;;;;;;;38.87;21.43;;;7.40;99.90;;;;;;5023326;28;20211;-82
2021/10/11 09:32:38;;;;;;;34.10;21.30;;;7.40;99.90;;;;;;5021221;28;20250;-81
2021/10/11 09:35:12;;;;;;;34.53;20.23;;;7.40;99.90;;;;;;5025306;28;20207;-81
2021/10/11 09:37:38;;;;;;;33.40;19.93;;;7.40;99.90;;;;;;5026220;28;20182;-80
2021/10/11 09:40:06;;;;;;;35.73;20.83;;;7.40;99.90;;;;;;5029779;28;20556;-83
2021/10/11 09:42:32;;;;;;;34.33;19.83;;;7.40;99.90;;;;;;5026762;28;20278;-82
2021/10/11 09:44:58;;;;;;;39.67;21.87;;;7.40;99.90;;;;;;5024117;28;20231;-84
2021/10/11 09:49:57;;;;;;;41.87;22.80;;;7.70;99.90;;;;;;5028342;28;20219;-83
2021/10/11 09:52:23;;;;;;;42.00;22.93;;;7.80;99.90;;;;;;5027097;28;20186;-84
2021/10/11 09:54:49;;;;;;;49.80;26.97;;;7.70;99.90;;;;;;5028953;28;20199;-83
2021/10/11 09:57:15;;;;;;;50.50;27.50;;;7.90;99.90;;;;;;5028275;28;20179;-83
2021/10/11 09:59:44;;;;;;;43.47;23.20;;;8.10;99.90;;;;;;5029589;28;20175;-83
2021/10/11 10:02:11;;;;;;;33.53;20.63;;;8.30;99.90;;;;;;5029445;28;20176;-83
2021/10/11 10:04:40;;;;;;;38.53;21.87;;;8.40;99.90;;;;;;5025183;28;20213;-82
2021/10/11 10:07:09;;;;;;;37.77;22.20;;;8.30;99.90;;;;;;5029529;28;20211;-81
2021/10/11 10:09:41;;;;;;;44.67;23.17;;;8.40;99.90;;;;;;5029588;28;20259;-83
2021/10/11 10:12:07;;;;;;;39.13;22.67;;;8.40;99.90;;;;;;5027810;28;20566;-84
2021/10/11 10:14:35;;;;;;;36.83;22.17;;;8.50;99.90;;;;;;5018109;28;20202;-82
2021/10/11 10:17:00;;;;;;;42.10;22.37;;;8.50;99.90;;;;;;5023714;28;20167;-83
2021/10/11 10:19:36;;;;;;;38.23;21.73;;;8.50;99.90;;;;;;5028790;28;20689;-82
2021/10/11 10:22:11;;;;;;;33.53;21.47;;;8.70;99.90;;;;;;5025624;28;20182;-82
2021/10/11 10:24:38;;;;;;;39.43;20.87;;;8.90;99.90;;;;;;5027353;28;20215;-81
2021/10/11 10:27:06;;;;;;;44.83;22.47;;;9.00;99.90;;;;;;5028156;28;20179;-81
2021/10/11 10:29:46;;;;;;;44.27;24.50;;;9.20;99.90;;;;;;5029206;28;20204;-81
2021/10/11 10:32:13;;;;;;;48.37;26.60;;;9.40;99.90;;;;;;5027013;28;20171;-81
2021/10/11 10:34:40;;;;;;;53.93;30.47;;;9.50;99.90;;;;;;5029345;28;20197;-82
2021/10/11 10:37:11;;;;;;;48.83;26.13;;;9.60;99.90;;;;;;5029570;28;20177;-80
2021/10/11 10:39:45;;;;;;;45.93;25.87;;;9.50;99.90;;;;;;5028450;28;20217;-80
2021/10/11 10:42:24;;;;;;;44.73;26.07;;;9.40;99.90;;;;;;5028378;28;20186;-81
2021/10/11 10:44:50;;;;;;;49.23;26.03;;;9.40;99.90;;;;;;5028323;28;20208;-82
2021/10/11 10:47:15;;;;;;;52.63;28.03;;;9.40;99.90;;;;;;5028303;28;20187;-81
2021/10/11 10:49:47;;;;;;;50.87;27.77;;;9.60;99.90;;;;;;5027208;28;20200;-81
2021/10/11 10:52:20;;;;;;;45.40;27.63;;;9.80;99.90;;;;;;5027454;28;20180;-80
2021/10/11 10:54:47;;;;;;;43.23;26.03;;;9.90;99.90;;;;;;5028395;28;20223;-81
2021/10/11 10:57:18;;;;;;;43.80;27.70;;;10.00;99.90;;;;;;5027559;28;20180;-82
2021/10/11 10:59:55;;;;;;;51.93;28.40;;;10.20;99.90;;;;;;5025624;28;20223;-81
2021/10/11 11:02:21;;;;;;;47.07;27.20;;;10.10;99.90;;;;;;5027497;28;20235;-81
2021/10/11 11:05:02;;;;;;;49.67;28.27;;;10.10;99.90;;;;;;5026524;28;20577;-81
2021/10/11 11:07:38;;;;;;;47.90;27.33;;;10.20;99.90;;;;;;5027744;28;20190;-81
2021/10/11 11:10:37;;;;;;;37.40;24.30;;;10.40;99.90;;;;;;5027502;28;20742;-80
2021/10/11 11:13:05;;;;;;;35.67;21.83;;;10.40;99.90;;;;;;4997319;28;20193;-82
2021/10/11 11:15:35;;;;;;;35.80;21.97;;;10.40;99.90;;;;;;5029020;28;20331;-81
2021/10/11 11:18:09;;;;;;;36.00;22.60;;;10.60;99.90;;;;;;5025729;28;20177;-81
2021/10/11 11:20:37;;;;;;;42.77;22.93;;;10.80;99.90;;;;;;5027823;28;20235;-82
2021/10/11 11:23:14;;;;;;;34.93;21.27;;;11.00;99.90;;;;;;5024994;28;20177;-82
2021/10/11 11:25:42;;;;;;;33.23;20.57;;;11.30;99.90;;;;;;5024594;28;20279;-82
2021/10/11 11:28:10;;;;;;;41.40;23.27;;;11.30;99.90;;;;;;5025798;28;20209;-83
2021/10/11 11:30:36;;;;;;;30.10;20.03;;;11.30;99.90;;;;;;5027146;28;20199;-82
2021/10/11 11:33:14;;;;;;;30.93;19.80;;;11.40;99.90;;;;;;5028090;28;20268;-82
2021/10/11 11:35:49;;;;;;;27.27;18.47;;;11.50;99.90;;;;;;5027676;28;20193;-80
2021/10/11 11:38:18;;;;;;;38.27;21.90;;;11.50;99.90;;;;;;5026722;28;20176;-82
2021/10/11 11:40:49;;;;;;;45.87;25.20;;;11.50;99.90;;;;;;5028617;28;20181;-82
2021/10/11 11:43:14;;;;;;;45.97;26.40;;;11.50;99.90;;;;;;5028709;28;20185;-82
2021/10/11 11:45:42;;;;;;;42.13;24.70;;;11.40;99.90;;;;;;5033845;28;20199;-82
2021/10/11 11:48:14;;;;;;;46.30;25.63;;;11.40;99.90;;;;;;5029693;28;20174;-82
2021/10/11 11:50:40;;;;;;;38.50;22.83;;;11.50;99.90;;;;;;5028547;28;20212;-83
2021/10/11 11:53:09;;;;;;;35.23;21.30;;;11.70;99.90;;;;;;5027571;28;20180;-81
2021/10/11 11:55:35;;;;;;;33.87;21.43;;;11.80;99.90;;;;;;5028059;28;20223;-81
2021/10/11 11:58:02;;;;;;;35.60;22.83;;;11.90;99.90;;;;;;5028243;28;20180;-81
2021/10/11 12:00:30;;;;;;;36.23;21.53;;;11.90;99.90;;;;;;5028154;28;20234;-80
2021/10/11 12:02:58;;;;;;;37.60;22.67;;;11.90;99.90;;;;;;5028666;28;20245;-80
2021/10/11 12:05:24;;;;;;;35.33;22.23;;;12.00;99.90;;;;;;5029317;28;20209;-81
2021/10/11 12:07:51;;;;;;;37.40;23.00;;;12.00;99.90;;;;;;5032966;28;20326;-81
2021/10/11 12:10:20;;;;;;;38.07;22.63;;;11.90;99.90;;;;;;5030561;28;20206;-81
2021/10/11 12:12:46;;;;;;;38.90;22.87;;;12.00;99.90;;;;;;5031236;28;20205;-82
2021/10/11 12:15:21;;;;;;;38.67;22.13;;;12.00;99.90;;;;;;5029711;28;20194;-82
2021/10/11 12:17:48;;;;;;;32.93;20.53;;;12.30;99.90;;;;;;5032371;28;20173;-82
2021/10/11 12:20:15;;;;;;;27.30;18.23;;;12.40;99.90;;;;;;5030652;28;20180;-83
2021/10/11 12:22:41;;;;;;;27.17;18.50;;;12.40;99.90;;;;;;5031279;28;20189;-82
2021/10/11 12:25:09;;;;;;;35.63;19.37;;;12.40;99.90;;;;;;5029164;28;20214;-81
2021/10/11 12:27:35;;;;;;;29.87;18.33;;;12.50;99.90;;;;;;5031393;28;20210;-83
2021/10/11 12:30:07;;;;;;;26.67;17.83;;;12.60;99.90;;;;;;5031941;28;20310;-82
2021/10/11 12:32:34;;;;;;;25.57;18.23;;;12.70;99.90;;;;;;5038202;28;20165;-81
2021/10/11 12:35:01;;;;;;;24.87;17.57;;;12.60;99.90;;;;;;5034754;28;20197;-81
2021/10/11 12:37:46;;;;;;;26.70;18.17;;;12.60;99.90;;;;;;5030486;28;20175;-82
2021/10/11 12:40:12;;;;;;;27.70;18.07;;;12.70;99.90;;;;;;5035184;28;20177;-82